Time;durP1;ratioP1;P1;durP2;ratioP2;P2;SDS_P1;SDS_P2;PMS_P1;PMS_P2;Temp;Humidity;BMP_temperature;BMP_pressure;BME280_temperature;BME280_humidity;BME280_pressure;Samples;Min_cycle;Max_cycle;Signal;HPM_P1;HPM_P2
2022/08/04 00:01:11;;;;;;;0.30;0.30;;;19.70;99.90;;;;;;5055155;28;20059;-72
2022/08/04 00:04:16;;;;;;;0.17;0.17;;;19.60;99.90;;;;;;5053606;28;20048;-72
2022/08/04 00:07:15;;;;;;;0.20;0.20;;;19.90;99.90;;;;;;5052118;28;20486;-71
2022/08/04 00:10:01;;;;;;;0.20;0.20;;;19.70;99.90;;;;;;5044317;28;20076;-71
2022/08/04 00:12:32;;;;;;;0.30;0.30;;;19.80;99.90;;;;;;5049477;28;20407;-72
2022/08/04 00:15:00;;;;;;;0.28;0.28;;;19.70;99.90;;;;;;5048333;28;20487;-72
2022/08/04 00:17:39;;;;;;;0.13;0.13;;;19.80;99.90;;;;;;5037999;28;20029;-72
2022/08/04 00:20:06;;;;;;;0.28;0.28;;;19.60;99.90;;;;;;5054152;28;20444;-71
2022/08/04 00:22:34;;;;;;;0.10;0.10;;;19.50;99.90;;;;;;5050629;28;20037;-72
2022/08/04 00:25:02;;;;;;;0.25;0.25;;;19.70;99.90;;;;;;5048916;28;20040;-72
2022/08/04 00:27:29;;;;;;;0.93;0.93;;;19.60;99.90;;;;;;5032936;28;20044;-72
2022/08/04 00:29:56;;;;;;;0.40;0.40;;;19.60;99.90;;;;;;5050176;28;20045;-72
2022/08/04 00:32:22;;;;;;;0.40;0.40;;;19.60;99.90;;;;;;5048876;28;20052;-71
2022/08/04 00:34:48;;;;;;;0.65;0.65;;;19.70;99.90;;;;;;5048704;28;20037;-71
2022/08/04 00:37:15;;;;;;;0.20;0.20;;;19.80;99.90;;;;;;5049081;28;20041;-71
2022/08/04 00:39:43;;;;;;;0.20;0.20;;;19.80;99.90;;;;;;5048995;28;20125;-72
2022/08/04 00:42:20;;;;;;;0.30;0.30;;;19.70;99.90;;;;;;5055638;28;20458;-71
2022/08/04 00:44:54;;;;;;;0.40;0.40;;;19.60;99.90;;;;;;5052719;28;20045;-71
2022/08/04 00:47:23;;;;;;;0.20;0.20;;;19.50;99.90;;;;;;5049113;28;20072;-72
2022/08/04 00:49:48;;;;;;;0.52;0.52;;;19.60;99.90;;;;;;5048960;28;20053;-70
2022/08/04 00:52:45;;;;;;;0.30;0.30;;;19.60;99.90;;;;;;5050852;28;20103;-72
2022/08/04 00:55:26;;;;;;;0.40;0.40;;;19.50;99.90;;;;;;5040966;28;20055;-72
2022/08/04 00:58:21;;;;;;;0.40;0.40;;;19.40;99.90;;;;;;5034791;28;20049;-72
2022/08/04 01:01:06;;;;;;;0.70;0.70;;;19.60;99.90;;;;;;5049653;28;20047;-71
2022/08/04 01:04:28;;;;;;;0.25;0.25;;;19.90;99.90;;;;;;5045975;28;20103;-71
2022/08/04 01:07:28;;;;;;;0.30;0.30;;;19.50;99.90;;;;;;4962002;28;20101;-71
2022/08/04 01:10:39;;;;;;;0.10;0.10;;;19.50;99.90;;;;;;4952961;28;20094;-70
2022/08/04 01:13:28;;;;;;;0.30;0.30;;;19.70;99.90;;;;;;5045448;28;20124;-71
2022/08/04 01:16:06;;;;;;;0.20;0.20;;;19.60;99.90;;;;;;5046754;28;20037;-72
2022/08/04 01:19:12;;;;;;;0.20;0.20;;;19.70;99.90;;;;;;5052946;28;20039;-71
2022/08/04 01:21:43;;;;;;;0.30;0.30;;;19.70;99.90;;;;;;5061747;28;20187;-71
2022/08/04 01:24:48;;;;;;;0.30;0.30;;;19.60;99.90;;;;;;5051003;28;20118;-71
2022/08/04 01:27:31;;;;;;;0.32;0.30;;;19.50;99.90;;;;;;4997728;28;20049;-71
2022/08/04 01:29:59;;;;;;;0.30;0.30;;;19.50;99.90;;;;;;5031419;28;20067;-72
2022/08/04 01:32:33;;;;;;;0.20;0.20;;;19.50;99.90;;;;;;5038785;28;20033;-71
2022/08/04 01:35:10;;;;;;;0.20;0.20;;;19.40;99.90;;;;;;5054122;28;20040;-72
2022/08/04 01:38:04;;;;;;;0.20;0.20;;;19.40;99.90;;;;;;5051982;28;20060;-72
2022/08/04 01:40:30;;;;;;;0.20;0.20;;;19.30;99.90;;;;;;5064941;28;20086;-72
2022/08/04 01:42:59;;;;;;;0.30;0.30;;;19.10;99.90;;;;;;5073519;28;20056;-71
2022/08/04 01:45:26;;;;;;;0.30;0.30;;;19.30;99.90;;;;;;5055390;28;20056;-72
2022/08/04 01:47:54;;;;;;;0.20;0.20;;;19.30;99.90;;;;;;5057058;28;20039;-71
2022/08/04 01:50:21;;;;;;;0.22;0.22;;;19.20;99.90;;;;;;5050478;28;20099;-72
2022/08/04 01:52:47;;;;;;;0.20;0.20;;;19.30;99.90;;;;;;5066897;28;20116;-72
2022/08/04 01:55:14;;;;;;;0.20;0.20;;;19.20;99.90;;;;;;5038818;28;20060;-72
2022/08/04 01:57:46;;;;;;;0.20;0.20;;;19.00;99.90;;;;;;5063435;28;20045;-72
2022/08/04 02:00:14;;;;;;;0.20;0.20;;;19.10;99.90;;;;;;5057078;28;20323;-72
2022/08/04 02:02:40;;;;;;;0.30;0.30;;;19.20;99.90;;;;;;5055331;28;20048;-71
2022/08/04 02:05:10;;;;;;;0.28;0.28;;;19.10;99.90;;;;;;5049360;28;20395;-72
2022/08/04 02:07:59;;;;;;;0.30;0.30;;;19.10;99.90;;;;;;5057311;28;20048;-71
2022/08/04 02:10:53;;;;;;;0.15;0.15;;;19.10;99.90;;;;;;5052377;28;20091;-71
2022/08/04 02:13:25;;;;;;;0.25;0.25;;;19.00;99.90;;;;;;5047398;28;20107;-71
2022/08/04 02:16:23;;;;;;;0.20;0.20;;;19.00;99.90;;;;;;5058040;28;20386;-71
2022/08/04 02:19:16;;;;;;;0.20;0.20;;;19.00;99.90;;;;;;5056860;28;20465;-71
2022/08/04 02:21:47;;;;;;;0.30;0.30;;;19.00;99.90;;;;;;5047209;28;20041;-71
2022/08/04 02:24:15;;;;;;;0.40;0.40;;;18.80;99.90;;;;;;5055535;28;20116;-71
2022/08/04 02:26:45;;;;;;;0.20;0.20;;;18.80;99.90;;;;;;5054483;28;20037;-71
2022/08/04 02:29:23;;;;;;;0.20;0.20;;;18.80;99.90;;;;;;5043374;28;20057;-71
2022/08/04 02:32:01;;;;;;;0.20;0.20;;;18.90;99.90;;;;;;5053636;28;20047;-71
2022/08/04 02:35:04;;;;;;;0.20;0.20;;;18.80;99.90;;;;;;5044930;28;20099;-71
2022/08/04 02:37:31;;;;;;;0.30;0.30;;;18.90;99.90;;;;;;5055394;28;20124;-71
2022/08/04 02:40:00;;;;;;;0.30;0.30;;;18.90;99.90;;;;;;5032056;28;20087;-71
2022/08/04 02:42:27;;;;;;;0.30;0.30;;;19.00;99.90;;;;;;5053715;28;20041;-72
2022/08/04 02:44:57;;;;;;;0.30;0.30;;;19.00;99.90;;;;;;5052262;28;20041;-71
2022/08/04 02:47:25;;;;;;;0.30;0.30;;;18.80;99.90;;;;;;5052506;28;20041;-72
2022/08/04 02:49:52;;;;;;;0.30;0.30;;;18.70;99.90;;;;;;5053534;28;20071;-72
2022/08/04 02:52:19;;;;;;;0.30;0.30;;;18.70;99.90;;;;;;5050637;28;20467;-72
2022/08/04 02:54:47;;;;;;;0.30;0.30;;;18.80;99.90;;;;;;5052837;28;20059;-72
2022/08/04 02:57:16;;;;;;;0.20;0.20;;;18.70;99.90;;;;;;5049663;28;20049;-72
2022/08/04 03:00:16;;;;;;;0.30;0.30;;;18.70;99.90;;;;;;5051894;28;20041;-71
2022/08/04 03:02:59;;;;;;;0.30;0.30;;;18.60;99.90;;;;;;5051655;28;20044;-72
2022/08/04 03:05:32;;;;;;;0.30;0.30;;;18.70;99.90;;;;;;5066436;28;20045;-71
2022/08/04 03:08:17;;;;;;;0.10;0.10;;;18.70;99.90;;;;;;5029111;28;20049;-72
2022/08/04 03:11:23;;;;;;;0.30;0.30;;;18.70;99.90;;;;;;5055952;28;20105;-72
2022/08/04 03:14:22;;;;;;;0.30;0.30;;;18.60;99.90;;;;;;5065670;28;20413;-72
2022/08/04 03:16:57;;;;;;;0.45;0.45;;;18.60;99.90;;;;;;5046289;28;20383;-71
2022/08/04 03:20:16;;;;;;;0.20;0.20;;;18.70;99.90;;;;;;5055678;28;20076;-72
2022/08/04 03:22:59;;;;;;;0.20;0.20;;;18.50;99.90;;;;;;5018925;28;20051;-70
2022/08/04 03:26:02;;;;;;;0.20;0.20;;;18.50;99.90;;;;;;5051004;28;20506;-71
2022/08/04 03:28:50;;;;;;;0.20;0.20;;;18.50;99.90;;;;;;5050377;28;20180;-71
2022/08/04 03:31:27;;;;;;;0.20;0.20;;;18.60;99.90;;;;;;5047343;28;20103;-72
2022/08/04 03:34:26;;;;;;;0.30;0.30;;;18.50;99.90;;;;;;5042665;28;20483;-71
2022/08/04 03:36:58;;;;;;;0.20;0.20;;;18.50;99.90;;;;;;5048179;28;20264;-71
2022/08/04 03:39:54;;;;;;;0.20;0.20;;;18.40;99.90;;;;;;5049365;28;20116;-71
2022/08/04 03:42:32;;;;;;;0.22;0.22;;;18.50;99.90;;;;;;5040974;28;20143;-71
2022/08/04 03:45:19;;;;;;;0.32;0.32;;;18.50;99.90;;;;;;5054890;28;20457;-71
2022/08/04 03:48:07;;;;;;;0.20;0.20;;;18.50;99.90;;;;;;5054095;28;20045;-72
2022/08/04 03:50:35;;;;;;;0.20;0.20;;;18.50;99.90;;;;;;5047223;28;20466;-74
2022/08/04 03:53:32;;;;;;;0.30;0.30;;;18.60;99.90;;;;;;5060642;28;20037;-72
2022/08/04 03:56:00;;;;;;;0.22;0.22;;;18.40;99.90;;;;;;5048076;28;20044;-73
2022/08/04 03:59:07;;;;;;;0.30;0.30;;;18.50;99.90;;;;;;5049964;28;20083;-73
2022/08/04 04:01:45;;;;;;;0.53;0.53;;;18.60;99.90;;;;;;5039257;28;20265;-72
2022/08/04 04:04:41;;;;;;;0.20;0.20;;;18.30;99.90;;;;;;5050706;28;20402;-73
2022/08/04 04:07:07;;;;;;;0.20;0.20;;;18.60;99.90;;;;;;5044887;28;20045;-73
2022/08/04 04:09:38;;;;;;;;;;;18.60;99.90;;;;;;5048689;28;20089;-72
2022/08/04 04:12:50;;;;;;;0.30;0.30;;;18.50;99.90;;;;;;5048184;28;20016;-73
2022/08/04 04:15:58;;;;;;;0.30;0.30;;;18.60;99.90;;;;;;5049688;28;20411;-72
2022/08/04 04:19:02;;;;;;;0.20;0.20;;;18.70;99.90;;;;;;4975851;28;20171;-73
2022/08/04 04:21:55;;;;;;;0.30;0.30;;;18.80;99.90;;;;;;4960104;28;20392;-72
2022/08/04 04:24:42;;;;;;;0.22;0.22;;;18.70;99.90;;;;;;5040233;28;20389;-73
2022/08/04 04:27:21;;;;;;;0.20;0.20;;;18.70;99.90;;;;;;5048439;28;20136;-74
2022/08/04 04:30:06;;;;;;;0.35;0.35;;;18.80;99.90;;;;;;5051316;28;20068;-73
2022/08/04 04:32:47;;;;;;;0.20;0.20;;;19.10;99.90;;;;;;5038390;28;20123;-73
2022/08/04 04:35:42;;;;;;;0.30;0.30;;;18.90;99.90;;;;;;5048422;28;20563;-73
2022/08/04 04:38:19;;;;;;;0.30;0.30;;;19.00;99.90;;;;;;5039810;28;20053;-72
2022/08/04 04:41:14;;;;;;;0.30;0.30;;;19.10;99.90;;;;;;5054147;28;20040;-73
2022/08/04 04:44:22;;;;;;;0.30;0.30;;;19.20;99.90;;;;;;5024432;28;20053;-72
2022/08/04 04:47:04;;;;;;;0.25;0.25;;;19.50;99.90;;;;;;5050588;28;20037;-73
2022/08/04 04:49:33;;;;;;;0.30;0.30;;;19.40;99.90;;;;;;5048715;28;20044;-73
2022/08/04 04:52:08;;;;;;;0.40;0.40;;;20.30;99.90;;;;;;5048313;28;20040;-73
2022/08/04 04:54:52;;;;;;;0.50;0.50;;;19.80;99.90;;;;;;5052582;28;20036;-73
2022/08/04 04:57:20;;;;;;;0.20;0.20;;;19.60;99.90;;;;;;5066956;28;20115;-74
2022/08/04 05:00:05;;;;;;;0.25;0.25;;;19.80;99.90;;;;;;5048192;28;20060;-73
2022/08/04 05:02:34;;;;;;;0.57;0.57;;;19.80;99.90;;;;;;5055860;28;20049;-73
2022/08/04 05:05:17;;;;;;;0.20;0.20;;;20.20;99.90;;;;;;5053210;28;20041;-75
2022/08/04 05:08:14;;;;;;;0.82;0.82;;;19.90;99.90;;;;;;5048111;28;20048;-74
2022/08/04 05:10:58;;;;;;;0.20;0.20;;;19.90;99.90;;;;;;5057271;28;20044;-73
2022/08/04 05:13:33;;;;;;;0.57;0.57;;;20.00;99.90;;;;;;5048851;28;20363;-74
2022/08/04 05:16:25;;;;;;;0.30;0.30;;;20.20;99.90;;;;;;5043792;28;20033;-73
2022/08/04 05:19:43;;;;;;;0.20;0.20;;;20.20;99.90;;;;;;5024174;28;20036;-73
2022/08/04 05:22:43;;;;;;;0.30;0.30;;;20.40;99.90;;;;;;5030472;28;20057;-73
2022/08/04 05:25:12;;;;;;;0.20;0.20;;;20.30;99.90;;;;;;5025165;28;20049;-71
2022/08/04 05:27:44;;;;;;;0.20;0.20;;;20.50;99.90;;;;;;5050389;28;20055;-73
2022/08/04 05:30:11;;;;;;;0.30;0.30;;;20.60;99.90;;;;;;5048009;28;20087;-73
2022/08/04 05:32:53;;;;;;;0.20;0.20;;;20.70;99.90;;;;;;5042420;28;20434;-74
2022/08/04 05:35:26;;;;;;;0.65;0.55;;;20.80;99.90;;;;;;5048147;28;20033;-72
2022/08/04 05:37:55;;;;;;;0.88;0.40;;;21.20;99.90;;;;;;5049268;28;20656;-73
2022/08/04 05:40:23;;;;;;;0.20;0.20;;;20.90;99.90;;;;;;5063214;28;20045;-72
2022/08/04 05:42:50;;;;;;;0.20;0.20;;;21.20;99.90;;;;;;5050259;28;20064;-73
2022/08/04 05:45:18;;;;;;;0.20;0.20;;;21.30;99.90;;;;;;5056019;28;20097;-72
2022/08/04 05:47:45;;;;;;;0.15;0.15;;;21.40;99.90;;;;;;5048550;28;20149;-72
2022/08/04 05:50:12;;;;;;;0.20;0.20;;;21.80;99.90;;;;;;5051009;28;20032;-72
2022/08/04 05:52:39;;;;;;;0.30;0.30;;;21.80;99.90;;;;;;5049652;28;20443;-73
2022/08/04 05:55:06;;;;;;;0.32;0.32;;;21.60;99.90;;;;;;5063361;28;20037;-73
2022/08/04 05:57:32;;;;;;;0.30;0.30;;;21.90;99.90;;;;;;5067862;28;20449;-73
2022/08/04 06:00:01;;;;;;;0.30;0.30;;;21.70;99.90;;;;;;5057151;28;20127;-72
2022/08/04 06:02:29;;;;;;;0.25;0.25;;;21.80;99.90;;;;;;5055032;28;20041;-72
2022/08/04 06:04:56;;;;;;;0.30;0.30;;;21.80;99.90;;;;;;5058604;28;20045;-72
2022/08/04 06:07:25;;;;;;;0.30;0.30;;;22.00;99.90;;;;;;5056546;28;20048;-72
2022/08/04 06:09:50;;;;;;;0.40;0.40;;;22.10;99.90;;;;;;5050169;28;20045;-72
2022/08/04 06:12:36;;;;;;;0.40;0.40;;;22.30;99.90;;;;;;5056268;28;20099;-72
2022/08/04 06:15:03;;;;;;;0.30;0.30;;;22.50;99.90;;;;;;5052673;28;20049;-72
2022/08/04 06:17:32;;;;;;;0.40;0.40;;;22.70;99.90;;;;;;5051523;28;20041;-72
2022/08/04 06:19:59;;;;;;;0.30;0.30;;;22.70;99.90;;;;;;5055767;28;20045;-72
2022/08/04 06:22:28;;;;;;;0.63;0.30;;;23.00;99.90;;;;;;5055832;28;20124;-72
2022/08/04 06:24:55;;;;;;;0.30;0.30;;;23.10;99.90;;;;;;5061615;28;20087;-72
2022/08/04 06:27:22;;;;;;;1.25;0.45;;;23.20;99.90;;;;;;5058068;28;20040;-72
2022/08/04 06:29:49;;;;;;;0.30;0.30;;;23.60;99.90;;;;;;5053745;28;20374;-71
2022/08/04 06:32:23;;;;;;;0.20;0.20;;;23.60;99.90;;;;;;5048292;28;20136;-71
2022/08/04 06:35:08;;;;;;;0.20;0.20;;;23.80;99.90;;;;;;5068143;28;20394;-72
2022/08/04 06:37:36;;;;;;;0.35;0.35;;;23.80;99.90;;;;;;5049307;28;20049;-72
2022/08/04 06:40:03;;;;;;;0.10;0.10;;;24.00;99.90;;;;;;5055590;28;20040;-73
2022/08/04 06:42:30;;;;;;;0.30;0.30;;;24.10;99.90;;;;;;5049062;28;20494;-72
2022/08/04 06:45:01;;;;;;;0.22;0.22;;;24.20;99.90;;;;;;5035880;28;20090;-72
2022/08/04 06:47:28;;;;;;;0.15;0.15;;;24.20;99.90;;;;;;5068342;28;20044;-72
2022/08/04 06:49:55;;;;;;;0.25;0.25;;;24.20;99.90;;;;;;5052117;28;20056;-72
2022/08/04 06:52:21;;;;;;;0.25;0.20;;;24.20;99.90;;;;;;5033458;28;20053;-72
2022/08/04 06:54:52;;;;;;;0.20;0.20;;;24.30;99.90;;;;;;5052453;28;20118;-73
2022/08/04 06:57:21;;;;;;;0.20;0.20;;;24.40;99.90;;;;;;5063807;28;20047;-73
2022/08/04 07:00:10;;;;;;;0.35;0.35;;;24.30;99.90;;;;;;5052237;28;20052;-73
2022/08/04 07:02:47;;;;;;;0.40;0.40;;;24.40;99.90;;;;;;5049968;28;20622;-73
2022/08/04 07:05:15;;;;;;;0.30;0.30;;;24.50;99.90;;;;;;5064366;28;20417;-73
2022/08/04 07:07:41;;;;;;;0.20;0.20;;;24.70;99.90;;;;;;5047945;28;20041;-73
2022/08/04 07:10:08;;;;;;;0.20;0.20;;;24.60;99.90;;;;;;5048012;28;20049;-73
2022/08/04 07:12:34;;;;;;;0.35;0.35;;;24.70;99.90;;;;;;5050252;28;20043;-73
2022/08/04 07:15:00;;;;;;;0.30;0.28;;;24.90;99.90;;;;;;5052341;28;20090;-73
2022/08/04 07:17:29;;;;;;;0.68;0.40;;;25.00;99.90;;;;;;5047334;28;20052;-73
2022/08/04 07:19:55;;;;;;;0.28;0.28;;;25.20;99.90;;;;;;5049109;28;20067;-73
2022/08/04 07:22:21;;;;;;;0.43;0.43;;;25.30;99.90;;;;;;5050259;28;20051;-73
2022/08/04 07:24:47;;;;;;;0.30;0.30;;;25.60;99.90;;;;;;5050010;28;20037;-74
2022/08/04 07:27:15;;;;;;;0.20;0.20;;;25.70;99.90;;;;;;5049712;28;20391;-73
2022/08/04 07:29:41;;;;;;;0.45;0.45;;;25.80;99.90;;;;;;5048365;28;20095;-73
2022/08/04 07:32:09;;;;;;;0.40;0.40;;;26.10;99.90;;;;;;5049602;28;20049;-73
2022/08/04 07:34:37;;;;;;;0.32;0.32;;;26.00;99.90;;;;;;5030273;28;20055;-72
2022/08/04 07:37:02;;;;;;;0.25;0.25;;;26.10;99.90;;;;;;5050364;28;20052;-73
2022/08/04 07:39:31;;;;;;;0.40;0.40;;;26.10;99.90;;;;;;5045578;28;20041;-74
2022/08/04 07:41:59;;;;;;;0.15;0.15;;;26.40;99.90;;;;;;5049075;28;20564;-74
2022/08/04 07:44:26;;;;;;;0.20;0.20;;;26.40;99.90;;;;;;5055531;28;20051;-73
2022/08/04 07:46:54;;;;;;;0.15;0.15;;;26.30;99.90;;;;;;5047985;28;20048;-73
2022/08/04 07:49:21;;;;;;;0.45;0.45;;;26.20;99.90;;;;;;5046672;28;20053;-73
2022/08/04 07:51:47;;;;;;;0.20;0.20;;;26.20;99.90;;;;;;5068696;28;20045;-73
2022/08/04 07:54:14;;;;;;;0.20;0.20;;;26.20;99.90;;;;;;5049749;28;20564;-73
2022/08/04 07:56:40;;;;;;;0.20;0.20;;;26.40;99.90;;;;;;5032839;28;20043;-73
2022/08/04 07:59:07;;;;;;;0.55;0.43;;;26.50;99.90;;;;;;5058762;28;20037;-73
2022/08/04 08:01:35;;;;;;;0.13;0.13;;;26.50;99.90;;;;;;5039694;28;20040;-73
2022/08/04 08:04:01;;;;;;;0.68;0.68;;;26.70;99.90;;;;;;5027370;28;20041;-74
2022/08/04 08:06:28;;;;;;;1.20;0.52;;;26.80;99.90;;;;;;5060668;28;20544;-74
2022/08/04 08:08:55;;;;;;;0.73;0.40;;;26.80;99.90;;;;;;5061565;28;20064;-74
2022/08/04 08:11:21;;;;;;;0.40;0.40;;;26.80;99.90;;;;;;5059117;28;20482;-74
2022/08/04 08:13:48;;;;;;;0.30;0.30;;;27.10;99.90;;;;;;5060964;28;20041;-73
2022/08/04 08:16:14;;;;;;;0.40;0.40;;;27.10;99.90;;;;;;5057917;28;20091;-74
2022/08/04 08:18:40;;;;;;;0.77;0.47;;;27.20;99.90;;;;;;5061212;28;20041;-73
2022/08/04 08:21:06;;;;;;;1.65;0.57;;;27.20;99.90;;;;;;5052065;28;20047;-76
2022/08/04 08:23:34;;;;;;;2.65;2.00;;;27.20;99.90;;;;;;5039313;28;20101;-77
2022/08/04 08:26:06;;;;;;;0.28;0.28;;;27.00;99.90;;;;;;5048003;28;20555;-78
2022/08/04 08:28:32;;;;;;;0.30;0.30;;;27.00;99.90;;;;;;5071363;28;20059;-77
2022/08/04 08:30:57;;;;;;;0.17;0.17;;;26.80;99.90;;;;;;5069069;28;20045;-77
2022/08/04 08:33:24;;;;;;;0.30;0.30;;;26.90;99.90;;;;;;5063843;28;20044;-74
2022/08/04 08:36:08;;;;;;;0.20;0.20;;;26.70;99.90;;;;;;5049562;28;20033;-78
2022/08/04 08:38:56;;;;;;;0.47;0.47;;;26.60;99.90;;;;;;5047980;28;20041;-77
2022/08/04 08:41:43;;;;;;;0.50;0.50;;;26.30;99.90;;;;;;5043675;28;20103;-74
2022/08/04 08:44:30;;;;;;;0.77;0.77;;;26.40;99.90;;;;;;5042576;28;20106;-77
2022/08/04 08:47:44;;;;;;;0.73;0.73;;;26.60;99.90;;;;;;5035353;28;20037;-76
2022/08/04 08:50:43;;;;;;;0.38;0.38;;;26.70;99.90;;;;;;4962769;28;20054;-78
2022/08/04 08:53:34;;;;;;;0.68;0.68;;;26.70;99.90;;;;;;5031936;28;20130;-75
2022/08/04 08:56:29;;;;;;;0.40;0.40;;;26.70;99.90;;;;;;5048333;28;20040;-73
2022/08/04 08:59:27;;;;;;;1.05;0.50;;;26.80;99.90;;;;;;5051129;28;20045;-72
2022/08/04 09:02:15;;;;;;;6.55;0.63;;;26.80;99.90;;;;;;5051604;28;20084;-75
2022/08/04 09:04:52;;;;;;;0.30;0.30;;;26.70;99.90;;;;;;5051335;28;20059;-73
2022/08/04 09:07:18;;;;;;;0.20;0.20;;;26.70;99.90;;;;;;5059453;28;20040;-75
2022/08/04 09:09:47;;;;;;;0.30;0.30;;;26.70;99.90;;;;;;5068594;28;20056;-75
2022/08/04 09:12:38;;;;;;;0.50;0.50;;;26.80;99.90;;;;;;5045040;28;20482;-74
2022/08/04 09:15:17;;;;;;;0.52;0.52;;;26.80;99.90;;;;;;5045971;28;20132;-72
2022/08/04 09:17:57;;;;;;;0.82;0.50;;;26.80;99.90;;;;;;5053210;28;20039;-76
2022/08/04 09:20:48;;;;;;;0.60;0.50;;;26.90;99.90;;;;;;5046193;28;20545;-74
2022/08/04 09:23:42;;;;;;;0.80;0.80;;;26.60;99.90;;;;;;5036451;28;20053;-76
2022/08/04 09:26:26;;;;;;;0.40;0.40;;;26.60;99.90;;;;;;5028085;28;20041;-74
2022/08/04 09:29:06;;;;;;;0.40;0.40;;;26.60;99.90;;;;;;5048674;28;20142;-75
2022/08/04 09:31:48;;;;;;;0.50;0.50;;;26.70;99.90;;;;;;5047730;28;20876;-77
2022/08/04 09:34:37;;;;;;;0.45;0.45;;;26.90;99.90;;;;;;5066551;28;20052;-73
2022/08/04 09:37:32;;;;;;;0.52;0.43;;;27.10;99.90;;;;;;5050866;28;20390;-72
2022/08/04 09:40:18;;;;;;;0.75;0.75;;;27.10;99.90;;;;;;5042784;28;20355;-73
2022/08/04 09:43:04;;;;;;;0.68;0.68;;;27.00;99.90;;;;;;5031730;28;20049;-74
2022/08/04 09:45:44;;;;;;;0.57;0.57;;;26.90;99.90;;;;;;5035187;28;20087;-74
2022/08/04 09:48:34;;;;;;;0.40;0.40;;;26.80;99.90;;;;;;5051768;28;20076;-74
2022/08/04 09:51:06;;;;;;;1.00;0.93;;;27.00;99.90;;;;;;5043892;28;20041;-75
2022/08/04 09:53:54;;;;;;;0.90;0.82;;;27.10;99.90;;;;;;5049418;28;20083;-75
2022/08/04 09:56:23;;;;;;;1.45;0.65;;;26.90;99.90;;;;;;5059454;28;20055;-76
2022/08/04 09:59:00;;;;;;;0.63;0.63;;;27.10;99.90;;;;;;5057825;28;20052;-75
2022/08/04 10:01:29;;;;;;;0.68;0.68;;;27.10;99.90;;;;;;5041515;28;20098;-74
2022/08/04 10:03:59;;;;;;;0.20;0.20;;;27.00;99.90;;;;;;5051578;28;20037;-75
2022/08/04 10:06:46;;;;;;;1.17;0.82;;;27.00;99.90;;;;;;5055867;28;20033;-74
2022/08/04 10:09:26;;;;;;;;;;;27.00;99.90;;;;;;5055841;28;20043;-74
2022/08/04 10:12:16;;;;;;;0.20;0.20;;;27.10;99.90;;;;;;5056171;28;19943;-74
2022/08/04 10:15:16;;;;;;;0.30;0.30;;;27.30;99.90;;;;;;5057643;28;20059;-76
2022/08/04 10:18:13;;;;;;;0.40;0.40;;;27.70;99.90;;;;;;5022462;28;20056;-75
2022/08/04 10:20:42;;;;;;;0.38;0.38;;;27.80;99.90;;;;;;5057831;28;20049;-73
2022/08/04 10:23:35;;;;;;;0.57;0.57;;;27.70;99.90;;;;;;5037942;28;20049;-74
2022/08/04 10:26:35;;;;;;;0.22;0.22;;;27.90;99.90;;;;;;5051144;28;20474;-75
2022/08/04 10:29:09;;;;;;;0.57;0.57;;;28.00;99.90;;;;;;5031570;28;20552;-73
2022/08/04 10:31:42;;;;;;;0.28;0.28;;;28.20;99.90;;;;;;5058180;28;20057;-76
2022/08/04 10:34:17;;;;;;;0.57;0.57;;;28.20;99.90;;;;;;5033800;28;20041;-77
2022/08/04 10:36:57;;;;;;;0.17;0.17;;;28.30;99.90;;;;;;5057320;28;20040;-74
2022/08/04 10:40:35;;;;;;;0.50;0.50;;;28.40;99.90;;;;;;5055882;28;20112;-73
2022/08/04 10:42:41;;;;;;;0.30;0.30;;;28.30;99.90;;;;;;5051136;28;20049;-73
2022/08/04 10:45:18;;;;;;;0.22;0.22;;;28.20;99.90;;;;;;5055496;28;20036;-79
2022/08/04 10:47:57;;;;;;;0.50;0.50;;;28.50;99.90;;;;;;5053642;28;20091;-81
2022/08/04 10:50:26;;;;;;;0.30;0.30;;;28.90;99.90;;;;;;5053376;28;20049;-73
2022/08/04 10:53:01;;;;;;;0.15;0.15;;;28.90;99.90;;;;;;5057515;28;20037;-73
2022/08/04 10:55:35;;;;;;;0.47;0.47;;;28.80;99.90;;;;;;5035602;28;20040;-73
2022/08/04 10:58:04;;;;;;;0.47;0.47;;;28.60;99.90;;;;;;5055848;28;20058;-73
2022/08/04 11:00:34;;;;;;;0.25;0.25;;;28.60;99.90;;;;;;5053108;28;20168;-73
2022/08/04 11:03:05;;;;;;;0.65;0.65;;;28.70;99.90;;;;;;5057447;28;20428;-72
2022/08/04 11:05:44;;;;;;;0.22;0.22;;;28.80;99.90;;;;;;5052680;28;20094;-72
2022/08/04 11:08:18;;;;;;;0.50;0.50;;;28.80;99.90;;;;;;5066501;28;20049;-72
2022/08/04 11:10:49;;;;;;;0.30;0.30;;;28.60;99.90;;;;;;5051721;28;20089;-73
2022/08/04 11:13:16;;;;;;;0.30;0.30;;;28.60;99.90;;;;;;5051636;28;20049;-73
2022/08/04 11:15:51;;;;;;;0.40;0.40;;;28.70;99.90;;;;;;5061332;28;20094;-73
2022/08/04 11:18:44;;;;;;;0.20;0.20;;;29.00;99.90;;;;;;5046629;28;20040;-73
2022/08/04 11:21:17;;;;;;;0.32;0.32;;;29.00;99.90;;;;;;5054027;28;20397;-73
2022/08/04 11:24:00;;;;;;;0.30;0.30;;;28.90;99.90;;;;;;5029643;28;20045;-72
2022/08/04 11:26:57;;;;;;;1.55;0.75;;;28.80;99.90;;;;;;5050940;28;20111;-72
2022/08/04 11:29:32;;;;;;;0.20;0.20;;;28.60;99.90;;;;;;5027407;28;20053;-72
2022/08/04 11:32:01;;;;;;;0.20;0.20;;;28.60;99.90;;;;;;5043652;28;20055;-72
2022/08/04 11:34:27;;;;;;;0.30;0.30;;;28.50;99.90;;;;;;5041195;28;20479;-73
2022/08/04 11:37:16;;;;;;;0.10;0.10;;;28.60;99.90;;;;;;5038233;28;20115;-73
2022/08/04 11:39:50;;;;;;;0.30;0.30;;;28.60;99.90;;;;;;5057971;28;20037;-73
2022/08/04 11:42:26;;;;;;;0.15;0.15;;;28.70;99.90;;;;;;5040073;28;20121;-73
2022/08/04 11:45:01;;;;;;;0.17;0.17;;;28.60;99.90;;;;;;5053832;28;20052;-71
2022/08/04 11:47:31;;;;;;;0.40;0.40;;;28.60;99.90;;;;;;5060241;28;20040;-72
2022/08/04 11:50:08;;;;;;;0.10;0.10;;;28.40;99.90;;;;;;5045034;28;20485;-72
2022/08/04 11:52:37;;;;;;;0.22;0.22;;;28.40;99.90;;;;;;5068907;28;20509;-73
2022/08/04 11:55:08;;;;;;;1.50;1.42;;;28.50;99.90;;;;;;5045512;28;20500;-72
2022/08/04 11:57:34;;;;;;;0.20;0.20;;;28.50;99.90;;;;;;5056763;28;20039;-73
2022/08/04 12:00:04;;;;;;;2.80;1.00;;;28.50;99.90;;;;;;5054616;28;20040;-73
2022/08/04 12:02:56;;;;;;;0.30;0.30;;;28.40;99.90;;;;;;5070366;28;20076;-73
2022/08/04 12:05:31;;;;;;;0.55;0.55;;;28.30;99.90;;;;;;5051054;28;20138;-72
2022/08/04 12:08:15;;;;;;;0.30;0.30;;;28.20;99.90;;;;;;5045043;28;20056;-72
2022/08/04 12:10:50;;;;;;;0.30;0.30;;;28.10;99.90;;;;;;5046493;28;20053;-72
2022/08/04 12:13:21;;;;;;;0.75;0.65;;;28.00;99.90;;;;;;5033704;28;20045;-73
2022/08/04 12:15:52;;;;;;;0.30;0.30;;;28.00;99.90;;;;;;5047641;28;20410;-72
2022/08/04 12:18:29;;;;;;;1.27;0.20;;;27.70;99.90;;;;;;5038097;28;20120;-72
2022/08/04 12:21:04;;;;;;;0.10;0.10;;;27.50;99.90;;;;;;5052722;28;20402;-72
2022/08/04 12:23:37;;;;;;;0.93;0.82;;;27.40;99.90;;;;;;5068102;28;20053;-72
2022/08/04 12:26:07;;;;;;;0.32;0.32;;;27.40;99.90;;;;;;5059192;28;20045;-72
2022/08/04 12:28:36;;;;;;;0.20;0.20;;;27.40;99.90;;;;;;5047819;28;20492;-73
2022/08/04 12:31:13;;;;;;;0.10;0.10;;;27.20;99.90;;;;;;5053887;28;20049;-73
2022/08/04 12:34:11;;;;;;;0.30;0.30;;;27.10;99.90;;;;;;5049795;28;20048;-72
2022/08/04 12:36:55;;;;;;;0.30;0.30;;;27.00;99.90;;;;;;5042579;28;20542;-71
2022/08/04 12:39:26;;;;;;;0.20;0.20;;;26.90;99.90;;;;;;5068573;28;20040;-73
2022/08/04 12:42:23;;;;;;;0.20;0.20;;;26.80;99.90;;;;;;5051237;28;20091;-73
2022/08/04 12:44:53;;;;;;;0.20;0.20;;;26.70;99.90;;;;;;5034933;28;20061;-73
2022/08/04 12:47:26;;;;;;;0.10;0.10;;;26.70;99.90;;;;;;5050947;28;20051;-72
2022/08/04 12:49:54;;;;;;;0.38;0.38;;;26.70;99.90;;;;;;5051325;28;20040;-73
2022/08/04 12:52:20;;;;;;;0.20;0.20;;;26.90;99.90;;;;;;5043111;28;20505;-73
2022/08/04 12:54:52;;;;;;;0.45;0.40;;;27.00;99.90;;;;;;5052967;28;20041;-72
2022/08/04 12:57:20;;;;;;;0.30;0.30;;;27.20;99.90;;;;;;5057042;28;20053;-73
2022/08/04 12:59:46;;;;;;;0.20;0.20;;;27.40;99.90;;;;;;5049203;28;20049;-72
2022/08/04 13:02:22;;;;;;;0.20;0.20;;;27.50;99.90;;;;;;5049114;28;20393;-72
2022/08/04 13:04:49;;;;;;;0.20;0.20;;;27.60;99.90;;;;;;5039108;28;20106;-71
2022/08/04 13:07:20;;;;;;;0.30;0.30;;;27.80;99.90;;;;;;5049523;28;20056;-72
2022/08/04 13:09:46;;;;;;;0.55;0.40;;;27.70;99.90;;;;;;5049850;28;20056;-73
2022/08/04 13:12:25;;;;;;;0.20;0.20;;;27.90;99.90;;;;;;5066497;28;20045;-74
2022/08/04 13:14:57;;;;;;;0.65;0.55;;;28.10;99.90;;;;;;5056108;28;20041;-72
2022/08/04 13:17:24;;;;;;;0.30;0.30;;;28.40;99.90;;;;;;5022016;28;20528;-72
2022/08/04 13:19:51;;;;;;;0.40;0.40;;;28.40;99.90;;;;;;5056522;28;20045;-73
2022/08/04 13:22:28;;;;;;;0.10;0.10;;;28.60;99.90;;;;;;5049702;28;20390;-73
2022/08/04 13:24:57;;;;;;;0.25;0.25;;;28.60;99.90;;;;;;5033208;28;20394;-73
2022/08/04 13:27:24;;;;;;;0.10;0.10;;;28.80;99.90;;;;;;5050314;28;20080;-73
2022/08/04 13:29:54;;;;;;;0.20;0.20;;;29.00;99.90;;;;;;5065179;28;20056;-73
2022/08/04 13:32:22;;;;;;;0.20;0.20;;;29.00;99.90;;;;;;5033296;28;20068;-73
2022/08/04 13:34:49;;;;;;;0.10;0.10;;;28.70;99.90;;;;;;5049510;28;20088;-72
2022/08/04 13:37:18;;;;;;;0.68;0.47;;;28.70;99.90;;;;;;5038765;28;20106;-72
2022/08/04 13:39:46;;;;;;;0.10;0.10;;;28.60;99.90;;;;;;5054417;28;20454;-72